createdAt,value
2023-03-10T00:00:20.428Z,87.85
2023-03-10T00:02:50.162Z,88.58
2023-03-10T00:05:18.387Z,87.55
2023-03-10T00:07:46.267Z,86.87
2023-03-10T00:10:14.198Z,87.51
2023-03-10T00:12:41.774Z,87.30
2023-03-10T00:15:09.840Z,86.66
2023-03-10T00:17:37.393Z,86.72
2023-03-10T00:20:08.005Z,86.06
2023-03-10T00:22:35.819Z,86.57
2023-03-10T00:25:03.386Z,87.09
2023-03-10T00:27:30.897Z,85.74
2023-03-10T00:29:58.461Z,88.33
2023-03-10T00:32:26.370Z,87.06
2023-03-10T00:34:53.897Z,86.61
2023-03-10T00:37:22.820Z,86.95
2023-03-10T00:39:51.699Z,87.45
2023-03-10T00:42:19.267Z,87.60
2023-03-10T00:44:46.901Z,87.61
2023-03-10T00:47:14.341Z,88.08
2023-03-10T00:49:41.801Z,87.36
2023-03-10T00:52:09.277Z,88.84
2023-03-10T00:54:41.692Z,87.44
2023-03-10T00:57:09.259Z,87.80
2023-03-10T00:59:49.365Z,86.84
2023-03-10T01:02:17.795Z,87.71
2023-03-10T01:04:45.346Z,88.36
2023-03-10T01:07:12.885Z,88.02
2023-03-10T01:09:41.830Z,87.28
2023-03-10T01:12:09.777Z,87.19
2023-03-10T01:14:37.255Z,88.56
2023-03-10T01:17:05.628Z,89.05
2023-03-10T01:19:33.153Z,87.74
2023-03-10T01:22:00.591Z,87.68
2023-03-10T01:24:28.106Z,87.10
2023-03-10T01:26:57.004Z,86.99
2023-03-10T01:29:24.500Z,88.06
2023-03-10T01:31:51.967Z,88.01
2023-03-10T01:34:19.451Z,87.57
2023-03-10T01:36:46.918Z,87.57
2023-03-10T01:39:14.403Z,88.04
2023-03-10T01:41:42.115Z,87.93
2023-03-10T01:44:14.550Z,87.45
2023-03-10T01:46:49.752Z,88.22
2023-03-10T01:49:21.566Z,86.95
2023-03-10T01:51:50.036Z,86.99
2023-03-10T01:54:18.450Z,87.85
2023-03-10T01:56:46.120Z,87.12
2023-03-10T01:59:14.988Z,87.37
2023-03-10T02:01:42.581Z,87.69
2023-03-10T02:04:10.528Z,88.61
2023-03-10T02:06:38.043Z,87.60
2023-03-10T02:09:05.531Z,86.13
2023-03-10T02:11:32.972Z,86.13
2023-03-10T02:14:01.651Z,87.26
2023-03-10T02:16:30.536Z,86.78
2023-03-10T02:18:58.040Z,86.92
2023-03-10T02:21:28.772Z,87.05
2023-03-10T02:24:01.262Z,88.37
2023-03-10T02:26:31.461Z,86.57
2023-03-10T02:29:00.466Z,86.70
2023-03-10T02:31:28.249Z,87.01
2023-03-10T02:33:55.792Z,86.82
2023-03-10T02:36:24.425Z,86.71
2023-03-10T02:38:52.110Z,87.27
2023-03-10T02:41:21.176Z,88.55
2023-03-10T02:43:49.324Z,86.86
2023-03-10T02:46:18.624Z,88.70
2023-03-10T02:48:46.227Z,88.31
2023-03-10T02:51:15.426Z,87.49
2023-03-10T02:53:42.910Z,87.97
2023-03-10T02:56:10.379Z,87.45
2023-03-10T02:58:37.951Z,88.03
2023-03-10T03:01:06.124Z,87.88
2023-03-10T03:03:35.148Z,87.65
2023-03-10T03:06:03.063Z,87.52
2023-03-10T03:08:30.589Z,86.39
2023-03-10T03:10:58.062Z,86.80
2023-03-10T03:13:25.538Z,87.07
2023-03-10T03:15:53.131Z,86.96
2023-03-10T03:18:20.707Z,87.09
2023-03-10T03:20:49.628Z,87.22
2023-03-10T03:23:17.097Z,87.47
2023-03-10T03:25:44.687Z,86.29
2023-03-10T03:28:12.600Z,86.47
2023-03-10T03:30:40.422Z,86.57
2023-03-10T03:33:08.095Z,86.64
2023-03-10T03:35:36.172Z,86.79
2023-03-10T03:38:05.308Z,87.03
2023-03-10T03:40:34.114Z,87.02
2023-03-10T03:43:01.830Z,87.11
2023-03-10T03:45:29.778Z,87.37
2023-03-10T03:47:57.344Z,86.54
2023-03-10T03:50:25.029Z,87.54
2023-03-10T03:52:52.569Z,86.99
2023-03-10T03:55:21.418Z,86.68
2023-03-10T03:57:49.088Z,86.86
2023-03-10T04:00:18.079Z,87.02
2023-03-10T04:02:45.642Z,86.95
2023-03-10T04:05:13.175Z,87.13
2023-03-10T04:07:41.073Z,87.14
2023-03-10T04:10:09.484Z,87.50
2023-03-10T04:12:38.495Z,87.60
2023-03-10T04:15:07.566Z,87.28
2023-03-10T04:17:35.254Z,87.10
2023-03-10T04:20:08.770Z,87.37
2023-03-10T04:22:36.516Z,86.51
2023-03-10T04:25:04.302Z,86.86
2023-03-10T04:27:32.001Z,86.87
2023-03-10T04:30:00.885Z,86.10
2023-03-10T04:32:28.489Z,87.12
2023-03-10T04:34:56.017Z,85.99
2023-03-10T04:37:23.538Z,86.54
2023-03-10T04:39:51.098Z,86.76
2023-03-10T04:42:18.547Z,88.13
2023-03-10T04:44:46.955Z,86.70
2023-03-10T04:47:15.911Z,86.24
2023-03-10T04:49:43.446Z,85.69
2023-03-10T04:52:10.870Z,86.52
2023-03-10T04:54:38.378Z,87.16
2023-03-10T04:57:05.872Z,86.61
2023-03-10T04:59:33.361Z,86.58
2023-03-10T05:02:00.856Z,86.72
2023-03-10T05:04:29.777Z,87.73
2023-03-10T05:06:57.341Z,87.56
2023-03-10T05:09:24.846Z,86.28
2023-03-10T05:11:52.402Z,85.68
2023-03-10T05:14:19.886Z,85.63
2023-03-10T05:16:48.578Z,85.43
2023-03-10T05:19:16.141Z,85.34
2023-03-10T05:21:45.031Z,85.89
2023-03-10T05:24:12.498Z,86.87
2023-03-10T05:26:39.966Z,86.64
2023-03-10T05:29:07.463Z,86.11
2023-03-10T05:31:35.069Z,86.60
2023-03-10T05:34:02.664Z,86.89
2023-03-10T05:36:30.185Z,86.79
2023-03-10T05:38:59.070Z,86.90
2023-03-10T05:41:26.577Z,86.07
2023-03-10T05:43:54.076Z,86.51
2023-03-10T05:46:21.725Z,86.55
2023-03-10T05:48:49.510Z,86.61
2023-03-10T05:51:17.030Z,86.97
2023-03-10T05:53:44.565Z,87.30
2023-03-10T05:56:14.328Z,86.62
2023-03-10T05:58:42.049Z,88.13
2023-03-10T06:01:09.714Z,87.40
2023-03-10T06:03:37.493Z,87.27
2023-03-10T06:06:06.674Z,87.03
2023-03-10T06:08:34.627Z,86.14
2023-03-10T06:11:02.090Z,85.43
2023-03-10T06:13:31.188Z,86.29
2023-03-10T06:15:59.394Z,86.35
2023-03-10T06:18:27.260Z,86.52
2023-03-10T06:20:54.853Z,88.26
2023-03-10T06:23:22.818Z,87.79
2023-03-10T06:25:57.272Z,86.92
2023-03-10T06:28:24.860Z,88.20
2023-03-10T06:30:56.474Z,87.36
2023-03-10T06:33:24.376Z,87.08
2023-03-10T06:35:51.895Z,86.79
2023-03-10T06:38:19.429Z,88.10
2023-03-10T06:40:47.214Z,87.89
2023-03-10T06:43:14.783Z,87.70
2023-03-10T06:45:42.493Z,88.61
2023-03-10T06:48:11.402Z,88.43
2023-03-10T06:50:41.383Z,89.43
2023-03-10T06:53:08.806Z,88.93
2023-03-10T06:55:36.518Z,87.88
2023-03-10T06:58:04.030Z,88.11
2023-03-10T07:00:31.498Z,87.69
2023-03-10T07:02:58.974Z,88.32
2023-03-10T07:05:28.235Z,88.09
2023-03-10T07:07:55.967Z,88.81
2023-03-10T07:10:23.816Z,88.65
2023-03-10T07:12:55.229Z,88.08
2023-03-10T07:15:23.328Z,86.59
2023-03-10T07:17:50.833Z,87.61
2023-03-10T07:20:18.463Z,88.17
2023-03-10T07:22:47.360Z,88.88
2023-03-10T07:25:14.917Z,87.91
2023-03-10T07:27:42.424Z,87.96
2023-03-10T07:30:10.538Z,87.57
2023-03-10T07:32:38.095Z,87.70
2023-03-10T07:35:06.009Z,87.29
2023-03-10T07:37:33.539Z,87.56
2023-03-10T07:40:02.475Z,87.75
2023-03-10T07:42:29.974Z,86.92
2023-03-10T07:44:57.496Z,87.46
2023-03-10T07:47:25.003Z,89.81
2023-03-10T07:49:52.508Z,88.27
2023-03-10T07:52:20.438Z,89.19
2023-03-10T07:54:48.052Z,88.81
2023-03-10T07:57:17.155Z,89.15
2023-03-10T07:59:46.486Z,88.01
2023-03-10T08:02:14.406Z,88.80
2023-03-10T08:04:42.750Z,89.79
2023-03-10T08:07:10.632Z,89.67
2023-03-10T08:09:39.379Z,88.38
2023-03-10T08:12:07.400Z,87.71
2023-03-10T08:14:36.599Z,88.12
2023-03-10T08:17:04.128Z,88.12
2023-03-10T08:19:31.608Z,88.51
2023-03-10T08:21:59.064Z,88.12
2023-03-10T08:24:26.600Z,87.53
2023-03-10T08:26:54.089Z,87.74
2023-03-10T08:29:21.730Z,87.34
2023-03-10T08:31:50.858Z,87.27
2023-03-10T08:34:18.369Z,87.30
2023-03-10T08:36:45.904Z,87.83
2023-03-10T08:39:13.701Z,89.09
2023-03-10T08:41:45.548Z,88.96
2023-03-10T08:44:15.406Z,89.05
2023-03-10T08:46:46.332Z,89.15
2023-03-10T08:49:15.694Z,89.20
2023-03-10T08:51:43.332Z,88.90
2023-03-10T08:54:11.844Z,89.74
2023-03-10T08:56:39.509Z,89.33
2023-03-10T08:59:07.119Z,90.32
2023-03-10T09:01:35.390Z,90.21
2023-03-10T09:04:03.312Z,89.42
2023-03-10T09:06:32.114Z,88.83
2023-03-10T09:08:59.780Z,88.20
2023-03-10T09:11:28.276Z,87.38
2023-03-10T09:13:56.053Z,87.98
2023-03-10T09:16:23.612Z,87.63
2023-03-10T09:18:51.124Z,87.74
2023-03-10T09:21:20.225Z,89.93
2023-03-10T09:23:49.974Z,88.73
2023-03-10T09:26:17.425Z,89.04
2023-03-10T09:28:44.913Z,88.62
2023-03-10T09:31:14.735Z,91.29
2023-03-10T09:33:42.359Z,90.71
2023-03-10T09:36:10.274Z,90.73
2023-03-10T09:38:37.829Z,89.12
2023-03-10T09:41:09.013Z,89.54
2023-03-10T09:43:38.049Z,88.99
2023-03-10T09:46:07.700Z,88.00
2023-03-10T09:48:41.164Z,88.35
2023-03-10T09:51:11.673Z,90.15
2023-03-10T09:53:45.495Z,90.15
2023-03-10T09:56:15.443Z,89.39
2023-03-10T09:58:43.925Z,89.05
2023-03-10T10:01:14.314Z,88.96
2023-03-10T10:03:52.694Z,87.91
2023-03-10T10:06:22.893Z,87.77
2023-03-10T10:09:03.471Z,88.69
2023-03-10T10:11:33.196Z,87.67
2023-03-10T10:14:08.112Z,88.88
2023-03-10T10:16:38.777Z,89.34
2023-03-10T10:19:07.830Z,88.54
2023-03-10T10:21:42.667Z,88.28
2023-03-10T10:24:10.682Z,88.22
2023-03-10T10:26:39.593Z,88.20
2023-03-10T10:29:13.073Z,88.15
2023-03-10T10:31:40.727Z,88.08
2023-03-10T10:34:09.012Z,88.31
2023-03-10T10:36:37.478Z,89.42
2023-03-10T10:39:05.944Z,90.36
2023-03-10T10:41:34.150Z,89.43
2023-03-10T10:44:08.389Z,88.88
2023-03-10T10:46:36.125Z,89.37
2023-03-10T10:49:05.299Z,88.90
2023-03-10T10:51:34.487Z,88.92
2023-03-10T10:54:02.491Z,89.47
2023-03-10T10:56:30.324Z,89.52
2023-03-10T10:59:06.589Z,88.54
2023-03-10T11:01:50.749Z,90.50
2023-03-10T11:04:18.429Z,91.02
2023-03-10T11:06:45.961Z,90.39
2023-03-10T11:09:14.284Z,90.79
2023-03-10T11:11:43.442Z,87.70
2023-03-10T11:14:19.464Z,87.51
2023-03-10T11:16:49.572Z,89.10
2023-03-10T11:19:18.858Z,87.64
2023-03-10T11:21:46.604Z,89.31
2023-03-10T11:24:15.084Z,88.38
2023-03-10T11:26:46.070Z,89.64
2023-03-10T11:29:17.561Z,90.40
2023-03-10T11:31:46.235Z,89.17
2023-03-10T11:34:17.553Z,89.34
2023-03-10T11:36:55.370Z,88.83
2023-03-10T11:39:25.553Z,89.49
2023-03-10T11:41:54.262Z,90.56
2023-03-10T11:44:24.236Z,88.17
2023-03-10T11:46:55.699Z,88.68
2023-03-10T11:49:27.208Z,89.34
2023-03-10T11:51:55.815Z,89.30
2023-03-10T11:54:26.718Z,87.50
2023-03-10T11:56:54.522Z,88.49
2023-03-10T11:59:23.857Z,87.88
2023-03-10T12:01:52.435Z,86.70
2023-03-10T12:04:21.385Z,86.93
2023-03-10T12:06:50.225Z,89.55
2023-03-10T12:09:19.499Z,87.78
2023-03-10T12:11:47.073Z,86.73
2023-03-10T12:14:14.639Z,87.40
2023-03-10T12:16:43.472Z,90.19
2023-03-10T12:19:10.945Z,87.41
2023-03-10T12:21:38.490Z,86.00
2023-03-10T12:24:06.159Z,87.22
2023-03-10T12:26:55.376Z,86.74
2023-03-10T12:29:33.440Z,87.25
2023-03-10T12:32:02.476Z,87.53
2023-03-10T12:34:32.081Z,87.36
2023-03-10T12:37:07.997Z,87.31
2023-03-10T12:39:39.782Z,86.31
2023-03-10T12:42:22.533Z,85.34
2023-03-10T12:44:52.261Z,85.54
2023-03-10T12:47:25.723Z,86.85
2023-03-10T12:49:55.108Z,84.71
2023-03-10T12:52:24.677Z,84.01
2023-03-10T12:54:53.800Z,85.96
2023-03-10T12:57:23.634Z,87.60
2023-03-10T12:59:53.905Z,89.46
2023-03-10T13:02:24.206Z,88.42
2023-03-10T13:04:53.105Z,87.55
2023-03-10T13:07:20.664Z,87.45
2023-03-10T13:09:48.874Z,85.46
2023-03-10T13:12:17.791Z,88.73
2023-03-10T13:14:45.295Z,86.62
2023-03-10T13:17:21.795Z,86.22
2023-03-10T13:19:59.015Z,87.06
2023-03-10T13:22:26.505Z,88.35
2023-03-10T13:25:01.175Z,86.98
2023-03-10T13:27:30.252Z,87.51
2023-03-10T13:29:58.216Z,87.09
2023-03-10T13:32:26.203Z,87.53
2023-03-10T13:34:53.785Z,87.69
2023-03-10T13:37:22.643Z,86.15
2023-03-10T13:39:50.168Z,88.83
2023-03-10T13:42:21.382Z,89.36
2023-03-10T13:44:51.854Z,87.73
2023-03-10T13:47:20.354Z,85.85
2023-03-10T13:49:49.134Z,86.83
2023-03-10T13:52:17.174Z,88.92
2023-03-10T13:54:46.111Z,89.46
2023-03-10T13:57:17.027Z,88.81
2023-03-10T13:59:44.712Z,87.89
2023-03-10T14:02:14.409Z,86.55
2023-03-10T14:04:43.082Z,87.60
2023-03-10T14:07:11.043Z,88.64
2023-03-10T14:09:38.678Z,87.47
2023-03-10T14:12:08.049Z,86.43
2023-03-10T14:14:36.577Z,86.94
2023-03-10T14:17:05.035Z,87.46
2023-03-10T14:19:50.985Z,85.99
2023-03-10T14:22:25.472Z,87.25
2023-03-10T14:24:52.997Z,86.40
2023-03-10T14:27:22.000Z,87.18
2023-03-10T14:29:50.272Z,87.31
2023-03-10T14:32:17.925Z,87.66
2023-03-10T14:34:45.436Z,87.58
2023-03-10T14:37:12.862Z,87.09
2023-03-10T14:39:40.404Z,86.89
2023-03-10T14:42:08.293Z,89.66
2023-03-10T14:44:37.209Z,87.32
2023-03-10T14:47:05.039Z,87.10
2023-03-10T14:49:32.685Z,87.11
2023-03-10T14:52:00.219Z,87.29
2023-03-10T14:54:27.808Z,89.35
2023-03-10T14:56:59.004Z,88.40
2023-03-10T14:59:26.564Z,88.01
2023-03-10T15:01:55.536Z,86.69
2023-03-10T15:04:23.122Z,86.43
2023-03-10T15:06:50.689Z,86.89
2023-03-10T15:09:19.738Z,87.69
2023-03-10T15:11:47.266Z,87.71
2023-03-10T15:14:15.243Z,86.94
2023-03-10T15:16:42.809Z,88.22
2023-03-10T15:19:14.318Z,88.00
2023-03-10T15:21:41.813Z,86.82
2023-03-10T15:24:09.423Z,86.96
2023-03-10T15:26:36.883Z,86.73
2023-03-10T15:29:04.399Z,86.51
2023-03-10T15:31:31.926Z,86.82
2023-03-10T15:33:59.410Z,86.18
2023-03-10T15:36:28.268Z,85.45
2023-03-10T15:38:55.823Z,85.52
2023-03-10T15:41:23.714Z,86.42
2023-03-10T15:43:51.230Z,86.86
2023-03-10T15:46:18.958Z,85.99
2023-03-10T15:48:46.462Z,85.89
2023-03-10T15:51:17.453Z,86.61
2023-03-10T15:53:46.488Z,87.47
2023-03-10T15:56:15.357Z,86.33
2023-03-10T15:58:42.953Z,86.12
2023-03-10T16:01:10.557Z,86.12
2023-03-10T16:03:38.396Z,88.32
2023-03-10T16:06:06.124Z,88.58
2023-03-10T16:08:37.360Z,86.37
2023-03-10T16:11:09.199Z,86.27
2023-03-10T16:13:36.729Z,85.89
2023-03-10T16:16:07.546Z,86.23
2023-03-10T16:18:35.327Z,86.96
2023-03-10T16:21:03.130Z,87.39
2023-03-10T16:23:31.205Z,88.39
2023-03-10T16:26:10.509Z,87.49
2023-03-10T16:28:38.755Z,86.93
2023-03-10T16:31:06.638Z,86.84
2023-03-10T16:33:34.233Z,87.80
2023-03-10T16:36:01.981Z,86.57
2023-03-10T16:38:29.704Z,86.51
2023-03-10T16:40:57.978Z,88.28
2023-03-10T16:43:28.043Z,89.00
2023-03-10T16:46:04.128Z,87.53
2023-03-10T16:48:31.725Z,87.45
2023-03-10T16:50:59.172Z,86.36
2023-03-10T16:53:26.769Z,86.42
2023-03-10T16:55:56.518Z,86.50
2023-03-10T16:58:24.037Z,87.27
2023-03-10T17:00:53.051Z,86.81
2023-03-10T17:03:20.675Z,87.29
2023-03-10T17:05:52.151Z,87.89
2023-03-10T17:08:19.712Z,88.00
2023-03-10T17:10:47.216Z,87.51
2023-03-10T17:13:14.696Z,88.18
2023-03-10T17:15:42.189Z,88.59
2023-03-10T17:18:11.181Z,87.60
2023-03-10T17:20:39.274Z,87.23
2023-03-10T17:23:06.815Z,87.39
2023-03-10T17:25:34.382Z,86.96
2023-03-10T17:28:01.955Z,87.33
2023-03-10T17:30:29.553Z,86.19
2023-03-10T17:32:57.128Z,87.17
2023-03-10T17:35:26.118Z,86.61
2023-03-10T17:37:53.678Z,86.86
2023-03-10T17:40:22.862Z,86.95
2023-03-10T17:42:50.415Z,86.61
2023-03-10T17:45:18.046Z,85.76
2023-03-10T17:47:45.554Z,87.20
2023-03-10T17:50:13.053Z,87.89
2023-03-10T17:52:42.021Z,86.55
2023-03-10T17:55:09.765Z,87.57
2023-03-10T17:57:39.686Z,86.49
2023-03-10T18:00:09.765Z,86.29
2023-03-10T18:02:37.363Z,85.99
2023-03-10T18:05:05.194Z,85.79
2023-03-10T18:07:32.751Z,86.99
2023-03-10T18:10:01.696Z,87.96
2023-03-10T18:12:29.193Z,87.05
2023-03-10T18:14:56.646Z,87.00
2023-03-10T18:17:24.075Z,86.82
2023-03-10T18:19:52.094Z,86.24
2023-03-10T18:22:19.666Z,86.42
2023-03-10T18:24:47.139Z,85.49
2023-03-10T18:27:15.936Z,85.31
2023-03-10T18:29:43.461Z,86.88
2023-03-10T18:32:10.984Z,86.51
2023-03-10T18:34:38.462Z,86.64
2023-03-10T18:37:06.147Z,86.12
2023-03-10T18:39:34.054Z,87.46
2023-03-10T18:42:01.520Z,86.09
2023-03-10T18:44:30.371Z,86.08
2023-03-10T18:46:57.851Z,86.16
2023-03-10T18:49:25.369Z,86.88
2023-03-10T18:51:52.864Z,85.91
2023-03-10T18:54:20.339Z,86.59
2023-03-10T18:56:47.811Z,86.55
2023-03-10T18:59:15.275Z,86.61
2023-03-10T19:01:44.216Z,86.45
2023-03-10T19:04:11.744Z,86.65
2023-03-10T19:06:40.534Z,87.81
2023-03-10T19:09:08.721Z,87.12
2023-03-10T19:11:36.501Z,88.00
2023-03-10T19:14:05.406Z,87.50
2023-03-10T19:16:33.006Z,87.20
2023-03-10T19:19:01.914Z,87.57
2023-03-10T19:21:29.485Z,87.68
2023-03-10T19:23:56.971Z,87.52
2023-03-10T19:26:24.495Z,87.83
2023-03-10T19:28:52.053Z,88.33
2023-03-10T19:31:19.644Z,87.66
2023-03-10T19:33:49.969Z,87.60
2023-03-10T19:36:18.906Z,87.83
2023-03-10T19:38:46.443Z,87.29
2023-03-10T19:41:15.109Z,87.47
2023-03-10T19:43:42.826Z,87.62
2023-03-10T19:46:11.524Z,87.88
2023-03-10T19:48:39.102Z,87.66
2023-03-10T19:51:06.749Z,87.17
2023-03-10T19:53:36.087Z,87.48
2023-03-10T19:56:04.826Z,87.18
2023-03-10T19:58:32.711Z,87.23
2023-03-10T20:01:00.489Z,87.81
2023-03-10T20:03:29.116Z,87.47
2023-03-10T20:05:56.683Z,87.68
2023-03-10T20:08:24.770Z,86.57
2023-03-10T20:10:53.667Z,87.64
2023-03-10T20:13:21.325Z,86.90
2023-03-10T20:15:48.916Z,86.73
2023-03-10T20:18:18.460Z,86.81
2023-03-10T20:20:46.173Z,86.68
2023-03-10T20:23:13.683Z,86.98
2023-03-10T20:25:41.213Z,86.99
2023-03-10T20:28:10.269Z,86.94
2023-03-10T20:30:38.822Z,87.00
2023-03-10T20:33:06.303Z,87.54
2023-03-10T20:35:34.215Z,87.29
2023-03-10T20:38:02.248Z,87.42
2023-03-10T20:40:29.770Z,87.85
2023-03-10T20:42:59.461Z,86.67
2023-03-10T20:45:28.495Z,86.74
2023-03-10T20:47:56.068Z,87.17
2023-03-10T20:50:23.541Z,86.86
2023-03-10T20:52:51.068Z,86.63
2023-03-10T20:55:20.531Z,87.29
2023-03-10T20:57:48.280Z,86.77
2023-03-10T21:00:17.516Z,87.43
2023-03-10T21:02:46.822Z,87.87
2023-03-10T21:05:14.382Z,87.50
2023-03-10T21:07:41.887Z,87.74
2023-03-10T21:10:11.465Z,86.59
2023-03-10T21:12:39.698Z,86.71
2023-03-10T21:15:07.774Z,86.92
2023-03-10T21:17:35.266Z,86.93
2023-03-10T21:20:05.932Z,87.40
2023-03-10T21:22:35.153Z,87.20
2023-03-10T21:25:02.822Z,87.21
2023-03-10T21:27:31.449Z,87.52
2023-03-10T21:30:00.052Z,88.04
2023-03-10T21:32:27.679Z,87.90
2023-03-10T21:34:55.201Z,87.71
2023-03-10T21:37:24.008Z,87.13
2023-03-10T21:39:53.850Z,87.57
2023-03-10T21:42:21.326Z,87.32
2023-03-10T21:44:49.074Z,87.69
2023-03-10T21:47:16.559Z,87.51
2023-03-10T21:49:44.085Z,86.79
2023-03-10T21:52:11.539Z,86.64
2023-03-10T21:54:40.729Z,87.48
2023-03-10T21:57:08.364Z,87.35
2023-03-10T21:59:35.872Z,87.04
2023-03-10T22:02:03.495Z,87.22
2023-03-10T22:04:31.081Z,86.39
2023-03-10T22:06:58.590Z,86.83
2023-03-10T22:09:26.066Z,88.05
2023-03-10T22:11:54.962Z,87.07
2023-03-10T22:14:24.441Z,87.54
2023-03-10T22:16:52.091Z,87.55
2023-03-10T22:19:20.126Z,88.88
2023-03-10T22:21:47.724Z,87.33
2023-03-10T22:24:15.246Z,87.06
2023-03-10T22:26:43.019Z,86.03
2023-03-10T22:29:11.904Z,87.62
2023-03-10T22:31:39.567Z,87.18
2023-03-10T22:34:07.064Z,87.49
2023-03-10T22:36:34.599Z,87.33
2023-03-10T22:39:02.104Z,87.09
2023-03-10T22:41:29.558Z,86.45
2023-03-10T22:43:57.005Z,86.63
2023-03-10T22:46:25.961Z,87.05
2023-03-10T22:48:53.493Z,87.10
2023-03-10T22:51:21.023Z,86.59
2023-03-10T22:53:48.535Z,87.00
2023-03-10T22:56:16.170Z,87.57
2023-03-10T22:58:43.645Z,86.71
2023-03-10T23:01:11.189Z,86.80
2023-03-10T23:03:41.575Z,86.96
2023-03-10T23:06:09.217Z,87.59
2023-03-10T23:08:37.420Z,87.11
2023-03-10T23:11:06.708Z,87.67
2023-03-10T23:13:34.190Z,87.57
2023-03-10T23:16:01.927Z,87.29
2023-03-10T23:18:29.464Z,87.98
2023-03-10T23:20:58.424Z,87.62
2023-03-10T23:23:26.054Z,87.56
2023-03-10T23:25:53.628Z,88.52
2023-03-10T23:28:21.682Z,87.52
2023-03-10T23:30:49.813Z,87.54
2023-03-10T23:33:18.019Z,87.53
2023-03-10T23:35:46.315Z,87.34
2023-03-10T23:38:15.258Z,87.73
2023-03-10T23:40:42.758Z,87.74
2023-03-10T23:43:10.244Z,88.12
2023-03-10T23:45:38.289Z,88.06
2023-03-10T23:48:06.985Z,88.43
2023-03-10T23:50:35.912Z,88.49
2023-03-10T23:53:03.689Z,88.37
2023-03-10T23:55:33.393Z,87.47
2023-03-10T23:58:00.958Z,88.33
